Stateline, Nevada
Current Conditions -  °F | °C
As of 4:53 PM on Thursday 27 Nov 2014 (Local Time) from KTVL Reporting Station
Clear Clear  
Wind Chill: 52°   Ceiling: Unl
Heat Index: 52°   Visibility: 10mi
Dew Point: 22°   Wind: 0mph
Humidity: 31%   Direction: NA
Pressure: 30.23"   Gusts: NA
Location:  38.97°N, 119.94°W
Report Text: KTVL 280053Z AUTO 00000KT 10SM CLR 11/M06 A3023 RMK AO2 SLP212 T01111056
Loading
Personal Weather Stations






























Interactive Weather Map New forecast layout! Learn more

10-Day Weather Forecast

Advertisements
Track Severe Weather on mobile